createdAt,value
2022-10-09T00:00:26.420Z,5.18
2022-10-09T00:02:53.043Z,6.10
2022-10-09T00:05:20.847Z,5.45
2022-10-09T00:07:47.674Z,4.88
2022-10-09T00:10:14.293Z,5.65
2022-10-09T00:12:40.996Z,5.80
2022-10-09T00:15:08.071Z,6.18
2022-10-09T00:17:34.791Z,4.53
2022-10-09T00:20:01.536Z,4.47
2022-10-09T00:24:54.974Z,4.70
2022-10-09T00:27:22.925Z,6.45
2022-10-09T00:29:50.310Z,4.57
2022-10-09T00:32:17.636Z,7.00
2022-10-09T00:34:44.595Z,6.38
2022-10-09T00:37:11.277Z,6.07
2022-10-09T00:39:38.005Z,5.43
2022-10-09T00:42:05.063Z,5.40
2022-10-09T00:44:57.097Z,6.70
2022-10-09T00:47:29.701Z,5.00
2022-10-09T00:50:12.907Z,5.20
2022-10-09T00:52:40.051Z,5.30
2022-10-09T00:55:08.141Z,5.43
2022-10-09T00:57:35.673Z,5.95
2022-10-09T01:00:05.798Z,6.32
2022-10-09T01:02:32.644Z,5.38
2022-10-09T01:04:59.554Z,5.43
2022-10-09T01:10:32.803Z,5.57
2022-10-09T01:13:17.811Z,5.88
2022-10-09T01:15:58.803Z,5.47
2022-10-09T01:18:50.500Z,4.93
2022-10-09T01:21:20.912Z,6.47
2022-10-09T01:23:56.181Z,5.45
2022-10-09T01:26:43.030Z,5.15
2022-10-09T01:29:11.457Z,5.22
2022-10-09T01:31:42.782Z,4.47
2022-10-09T01:34:12.094Z,4.30
2022-10-09T01:36:40.417Z,4.53
2022-10-09T01:39:10.165Z,4.93
2022-10-09T01:41:37.511Z,3.72
2022-10-09T01:44:14.365Z,4.90
2022-10-09T01:46:41.051Z,3.95
2022-10-09T01:52:11.092Z,5.50
2022-10-09T01:54:49.756Z,5.47
2022-10-09T01:57:23.256Z,5.78
2022-10-09T01:59:52.478Z,3.80
2022-10-09T02:02:20.793Z,5.15
2022-10-09T02:04:48.946Z,5.00
2022-10-09T02:07:16.650Z,6.35
2022-10-09T02:09:44.463Z,4.55
2022-10-09T02:12:12.672Z,5.25
2022-10-09T02:14:39.455Z,5.10
2022-10-09T02:19:43.078Z,6.70
2022-10-09T02:22:21.167Z,5.88
2022-10-09T02:24:48.080Z,6.10
2022-10-09T02:29:43.573Z,5.43
2022-10-09T02:32:10.839Z,6.05
2022-10-09T02:34:37.533Z,5.38
2022-10-09T02:37:05.072Z,5.70
2022-10-09T02:39:31.746Z,6.22
2022-10-09T02:41:58.543Z,5.68
2022-10-09T02:44:25.288Z,6.65
2022-10-09T02:49:18.991Z,6.63
2022-10-09T02:51:45.820Z,5.80
2022-10-09T02:56:39.372Z,6.72
2022-10-09T02:59:06.772Z,7.03
2022-10-09T03:01:33.603Z,6.57
2022-10-09T03:06:28.616Z,6.15
2022-10-09T03:08:56.092Z,6.40
2022-10-09T03:11:24.843Z,6.22
2022-10-09T03:13:52.106Z,7.10
2022-10-09T03:16:21.619Z,6.45
2022-10-09T03:18:49.111Z,5.45
2022-10-09T03:21:22.426Z,5.82
2022-10-09T03:23:49.786Z,7.25
2022-10-09T03:26:19.714Z,6.60
2022-10-09T03:28:48.766Z,7.05
2022-10-09T03:31:33.415Z,7.10
2022-10-09T03:34:04.422Z,7.00
2022-10-09T03:36:31.146Z,7.88
2022-10-09T03:41:24.466Z,8.20
2022-10-09T03:43:51.196Z,7.45
2022-10-09T03:48:44.713Z,7.93
2022-10-09T03:53:38.051Z,7.13
2022-10-09T03:56:04.931Z,7.55
2022-10-09T03:58:31.702Z,8.05
2022-10-09T04:00:58.500Z,7.53
2022-10-09T04:05:53.689Z,8.35
2022-10-09T04:08:20.381Z,8.88
2022-10-09T04:10:47.014Z,8.68
2022-10-09T04:13:13.756Z,7.57
2022-10-09T04:15:40.369Z,8.32
2022-10-09T04:18:07.644Z,8.88
2022-10-09T04:20:34.310Z,8.13
2022-10-09T04:23:01.467Z,8.30
2022-10-09T04:25:28.269Z,9.43
2022-10-09T04:27:54.938Z,7.50
2022-10-09T04:30:21.622Z,7.43
2022-10-09T04:32:48.740Z,7.95
2022-10-09T04:35:16.635Z,8.95
2022-10-09T04:37:43.424Z,9.23
2022-10-09T04:42:36.901Z,8.02
2022-10-09T04:47:30.972Z,8.68
2022-10-09T04:49:57.668Z,8.73
2022-10-09T04:52:24.393Z,9.27
2022-10-09T04:57:17.912Z,7.72
2022-10-09T05:02:11.275Z,7.85
2022-10-09T05:04:38.137Z,9.40
2022-10-09T05:09:31.357Z,8.52
2022-10-09T05:11:57.968Z,8.55
2022-10-09T05:14:24.760Z,7.18
2022-10-09T05:22:07.119Z,7.53
2022-10-09T05:24:33.810Z,9.25
2022-10-09T05:27:00.444Z,7.68
2022-10-09T05:29:27.131Z,7.88
2022-10-09T05:31:53.836Z,5.95
2022-10-09T05:36:47.307Z,9.48
2022-10-09T05:41:40.549Z,7.10
2022-10-09T05:44:07.360Z,6.68
2022-10-09T05:46:34.774Z,8.07
2022-10-09T05:49:07.766Z,8.60
2022-10-09T05:51:37.194Z,6.88
2022-10-09T05:54:05.593Z,6.45
2022-10-09T05:56:34.882Z,7.75
2022-10-09T05:59:07.017Z,8.10
2022-10-09T06:01:36.423Z,7.78
2022-10-09T06:04:03.949Z,7.63
2022-10-09T06:06:33.225Z,6.30
2022-10-09T06:09:00.300Z,7.85
2022-10-09T06:11:31.483Z,8.32
2022-10-09T06:14:00.261Z,8.27
2022-10-09T06:16:30.333Z,8.32
2022-10-09T06:18:58.010Z,8.57
2022-10-09T06:21:26.395Z,7.50
2022-10-09T06:23:56.063Z,7.18
2022-10-09T06:26:24.452Z,8.73
2022-10-09T06:28:52.462Z,6.78
2022-10-09T06:31:24.864Z,7.93
2022-10-09T06:33:52.835Z,8.68
2022-10-09T06:36:22.508Z,7.18
2022-10-09T06:38:49.970Z,7.60
2022-10-09T06:41:22.198Z,8.05
2022-10-09T06:43:56.166Z,8.10
2022-10-09T06:46:26.381Z,7.63
2022-10-09T06:48:53.143Z,7.60
2022-10-09T06:51:24.081Z,7.57
2022-10-09T06:53:52.941Z,7.88
2022-10-09T06:56:22.012Z,8.23
2022-10-09T06:58:48.940Z,8.05
2022-10-09T07:01:19.175Z,8.88
2022-10-09T07:03:48.677Z,7.70
2022-10-09T07:06:21.057Z,8.07
2022-10-09T07:08:50.327Z,7.95
2022-10-09T07:11:25.188Z,6.93
2022-10-09T07:13:55.106Z,7.65
2022-10-09T07:16:27.706Z,7.95
2022-10-09T07:18:55.322Z,9.32
2022-10-09T07:21:23.932Z,9.43
2022-10-09T07:23:50.710Z,8.68
2022-10-09T07:26:20.193Z,8.57
2022-10-09T07:28:48.003Z,8.05
2022-10-09T07:31:15.270Z,9.43
2022-10-09T07:33:42.155Z,9.30
2022-10-09T07:38:36.646Z,10.35
2022-10-09T07:41:09.259Z,10.45
2022-10-09T07:43:37.901Z,8.68
2022-10-09T07:46:07.278Z,7.88
2022-10-09T07:48:35.364Z,9.82
2022-10-09T07:51:13.938Z,9.18
2022-10-09T07:53:41.063Z,9.68
2022-10-09T07:56:13.003Z,8.63
2022-10-09T07:58:39.645Z,9.77
2022-10-09T08:01:07.513Z,17.00
2022-10-09T08:03:35.145Z,13.32
2022-10-09T08:06:01.810Z,11.02
2022-10-09T08:08:29.482Z,9.18
2022-10-09T08:10:56.395Z,10.55
2022-10-09T08:15:49.804Z,10.35
2022-10-09T08:20:43.325Z,10.80
2022-10-09T08:23:09.963Z,10.73
2022-10-09T08:25:37.348Z,10.00
2022-10-09T08:28:05.025Z,9.90
2022-10-09T08:30:31.991Z,9.23
2022-10-09T08:32:58.650Z,11.85
2022-10-09T08:35:25.510Z,9.88
2022-10-09T08:40:31.999Z,10.52
2022-10-09T08:43:04.774Z,9.65
2022-10-09T08:45:34.642Z,11.35
2022-10-09T08:48:07.820Z,9.52
2022-10-09T08:50:38.168Z,11.95
2022-10-09T08:53:38.067Z,11.07
2022-10-09T08:56:11.423Z,12.90
2022-10-09T08:58:40.339Z,9.93
2022-10-09T09:01:46.562Z,9.82
2022-10-09T09:04:31.432Z,11.48
2022-10-09T09:07:01.788Z,10.85
2022-10-09T09:09:35.155Z,11.23
2022-10-09T09:12:09.693Z,11.38
2022-10-09T09:14:39.083Z,11.15
2022-10-09T09:17:29.075Z,11.90
2022-10-09T09:20:08.881Z,11.10
2022-10-09T09:22:39.150Z,10.70
2022-10-09T09:25:19.965Z,10.50
2022-10-09T09:27:47.609Z,13.50
2022-10-09T09:30:19.530Z,10.40
2022-10-09T09:33:16.493Z,12.75
2022-10-09T09:36:21.482Z,11.82
2022-10-09T09:39:32.471Z,12.43
2022-10-09T09:41:36.237Z,12.48
2022-10-09T09:44:03.728Z,13.73
2022-10-09T09:46:32.231Z,11.88
2022-10-09T09:48:59.029Z,12.52
2022-10-09T09:51:29.948Z,12.45
2022-10-09T09:53:58.105Z,12.20
2022-10-09T09:56:59.722Z,13.02
2022-10-09T09:59:40.085Z,12.93
2022-10-09T10:02:09.679Z,13.82
2022-10-09T10:04:41.037Z,14.48
2022-10-09T10:07:09.802Z,13.77
2022-10-09T10:09:36.441Z,13.98
2022-10-09T10:12:04.041Z,14.00
2022-10-09T10:14:32.487Z,13.85
2022-10-09T10:17:00.914Z,14.05
2022-10-09T10:19:35.176Z,12.55
2022-10-09T10:22:03.254Z,12.52
2022-10-09T10:24:34.402Z,13.35
2022-10-09T10:27:30.665Z,14.02
2022-10-09T10:30:04.996Z,13.07
2022-10-09T10:32:38.984Z,13.63
2022-10-09T10:35:40.539Z,13.90
2022-10-09T10:38:38.424Z,9.98
2022-10-09T10:41:23.596Z,13.32
2022-10-09T10:44:15.357Z,13.00
2022-10-09T10:46:52.307Z,15.23
2022-10-09T10:49:23.219Z,14.15
2022-10-09T10:52:10.677Z,13.77
2022-10-09T10:54:46.537Z,15.07
2022-10-09T10:57:50.733Z,15.77
2022-10-09T11:00:18.118Z,12.77
2022-10-09T11:03:03.808Z,13.07
2022-10-09T11:05:45.298Z,14.23
2022-10-09T11:08:35.374Z,14.43
2022-10-09T11:11:12.367Z,12.98
2022-10-09T11:13:56.068Z,13.35
2022-10-09T11:16:52.373Z,14.98
2022-10-09T11:19:18.969Z,14.88
2022-10-09T11:22:01.419Z,12.40
2022-10-09T11:24:57.442Z,13.75
2022-10-09T11:27:44.172Z,13.20
2022-10-09T11:30:13.574Z,12.30
2022-10-09T11:33:12.466Z,14.35
2022-10-09T11:35:56.356Z,15.48
2022-10-09T11:38:29.859Z,14.02
2022-10-09T11:40:58.405Z,14.82
2022-10-09T11:43:24.967Z,13.98
2022-10-09T11:45:58.284Z,13.45
2022-10-09T11:48:42.654Z,11.40
2022-10-09T11:51:09.378Z,11.13
2022-10-09T11:53:38.486Z,13.90
2022-10-09T11:56:20.634Z,11.00
2022-10-09T11:59:01.705Z,11.10
2022-10-09T12:01:34.767Z,14.20
2022-10-09T12:04:43.598Z,12.48
2022-10-09T12:07:25.187Z,9.77
2022-10-09T12:09:59.717Z,10.65
2022-10-09T12:12:26.759Z,10.10
2022-10-09T12:14:53.889Z,10.50
2022-10-09T12:17:23.437Z,8.98
2022-10-09T12:20:00.962Z,9.90
2022-10-09T12:22:40.045Z,10.88
2022-10-09T12:25:16.897Z,10.60
2022-10-09T12:27:44.460Z,12.43
2022-10-09T12:30:11.573Z,11.40
2022-10-09T12:32:50.481Z,13.88
2022-10-09T12:35:39.096Z,11.70
2022-10-09T12:38:24.903Z,15.93
2022-10-09T12:40:53.077Z,14.02
2022-10-09T12:43:22.510Z,30.15
2022-10-09T12:45:51.713Z,21.10
2022-10-09T12:48:22.514Z,17.17
2022-10-09T12:50:49.639Z,13.32
2022-10-09T12:53:20.762Z,11.93
2022-10-09T12:55:54.452Z,12.82
2022-10-09T12:58:25.428Z,12.30
2022-10-09T13:00:55.304Z,13.30
2022-10-09T13:03:32.728Z,14.15
2022-10-09T13:08:32.448Z,13.90
2022-10-09T13:11:12.671Z,13.82
2022-10-09T13:13:40.076Z,15.77
2022-10-09T13:16:09.530Z,17.25
2022-10-09T13:18:37.849Z,16.42
2022-10-09T13:21:06.723Z,16.88
2022-10-09T13:23:35.222Z,15.00
2022-10-09T13:26:04.400Z,15.38
2022-10-09T13:28:31.819Z,15.32
2022-10-09T13:31:07.273Z,15.93
2022-10-09T13:33:34.413Z,16.90
2022-10-09T13:36:01.111Z,15.60
2022-10-09T13:41:00.778Z,16.50
2022-10-09T13:43:28.745Z,17.75
2022-10-09T13:45:55.509Z,15.77
2022-10-09T13:50:49.261Z,14.93
2022-10-09T13:53:15.946Z,15.70
2022-10-09T13:55:42.715Z,13.80
2022-10-09T14:00:37.088Z,12.75
2022-10-09T14:03:04.710Z,14.13
2022-10-09T14:05:31.393Z,12.63
2022-10-09T14:07:58.042Z,11.60
2022-10-09T14:10:24.765Z,13.68
2022-10-09T14:12:52.007Z,15.40
2022-10-09T14:15:18.910Z,14.35
2022-10-09T14:17:46.087Z,23.75
2022-10-09T14:20:13.079Z,47.67
2022-10-09T14:25:07.273Z,11.68
2022-10-09T14:30:01.778Z,12.77
2022-10-09T14:34:55.316Z,14.98
2022-10-09T14:40:08.832Z,12.30
2022-10-09T14:42:37.753Z,9.77
2022-10-09T14:45:05.016Z,8.65
2022-10-09T14:47:31.842Z,10.65
2022-10-09T14:52:25.156Z,13.55
2022-10-09T14:54:51.843Z,11.50
2022-10-09T14:57:18.547Z,12.43
2022-10-09T14:59:45.570Z,12.40
2022-10-09T15:02:15.147Z,12.68
2022-10-09T15:04:41.995Z,12.98
2022-10-09T15:09:35.239Z,11.18
2022-10-09T15:12:01.998Z,11.60
2022-10-09T15:16:55.611Z,11.85
2022-10-09T15:19:22.238Z,14.40
2022-10-09T15:21:49.024Z,12.13
2022-10-09T15:26:42.356Z,11.07
2022-10-09T15:29:09.262Z,11.70
2022-10-09T15:31:38.445Z,11.80
2022-10-09T15:34:07.478Z,10.95
2022-10-09T15:36:37.022Z,13.73
2022-10-09T15:39:05.991Z,12.45
2022-10-09T15:41:35.369Z,13.15
2022-10-09T15:44:04.714Z,9.98
2022-10-09T15:46:32.023Z,11.43
2022-10-09T15:48:58.921Z,12.68
2022-10-09T15:51:26.012Z,12.07
2022-10-09T15:53:53.192Z,11.07
2022-10-09T15:56:22.594Z,11.23
2022-10-09T15:58:50.452Z,10.90
2022-10-09T16:01:18.185Z,13.98
2022-10-09T16:03:45.488Z,10.90
2022-10-09T16:06:15.766Z,13.05
2022-10-09T16:08:42.596Z,13.65
2022-10-09T16:13:39.399Z,14.77
2022-10-09T16:16:07.983Z,12.23
2022-10-09T16:18:35.156Z,11.70
2022-10-09T16:21:16.631Z,9.60
2022-10-09T16:23:44.832Z,8.88
2022-10-09T16:26:14.171Z,8.45
2022-10-09T16:28:41.066Z,9.02
2022-10-09T16:31:07.779Z,7.57
2022-10-09T16:33:34.474Z,9.40
2022-10-09T16:36:08.645Z,7.13
2022-10-09T16:38:35.367Z,8.75
2022-10-09T16:41:02.690Z,7.88
2022-10-09T16:43:33.587Z,7.80
2022-10-09T16:46:13.414Z,7.25
2022-10-09T16:48:40.195Z,6.88
2022-10-09T16:53:34.649Z,7.10
2022-10-09T16:58:39.104Z,8.30
2022-10-09T17:01:09.795Z,11.13
2022-10-09T17:03:40.310Z,7.38
2022-10-09T17:06:12.290Z,8.25
2022-10-09T17:08:39.452Z,12.55
2022-10-09T17:11:11.574Z,12.07
2022-10-09T17:13:38.968Z,11.35
2022-10-09T17:16:07.735Z,13.07
2022-10-09T17:18:35.213Z,9.20
2022-10-09T17:21:03.753Z,11.02
2022-10-09T17:23:30.732Z,12.30
2022-10-09T17:25:57.695Z,13.25
2022-10-09T17:28:24.999Z,10.93
2022-10-09T17:30:51.811Z,10.05
2022-10-09T17:33:20.045Z,9.13
2022-10-09T17:35:47.112Z,13.45
2022-10-09T17:38:13.951Z,13.45
2022-10-09T17:43:08.568Z,8.68
2022-10-09T17:45:39.936Z,11.27
2022-10-09T17:48:08.053Z,11.20
2022-10-09T17:50:35.670Z,9.02
2022-10-09T17:53:02.825Z,9.65
2022-10-09T17:55:30.069Z,11.35
2022-10-09T17:57:57.626Z,11.10
2022-10-09T18:00:24.357Z,10.48
2022-10-09T18:02:50.982Z,9.23
2022-10-09T18:07:44.444Z,11.32
2022-10-09T18:10:11.204Z,10.65
2022-10-09T18:12:37.846Z,9.35
2022-10-09T18:15:04.922Z,14.07
2022-10-09T18:17:33.381Z,13.98
2022-10-09T18:20:00.298Z,13.63
2022-10-09T18:24:53.526Z,13.70
2022-10-09T18:27:20.363Z,11.80
2022-10-09T18:29:47.095Z,14.93
2022-10-09T18:32:13.829Z,14.50
2022-10-09T18:37:13.182Z,15.90
2022-10-09T18:42:06.480Z,11.60
2022-10-09T18:44:40.006Z,11.20
2022-10-09T18:47:11.702Z,14.40
2022-10-09T18:49:43.454Z,12.73
2022-10-09T18:52:12.157Z,15.15
2022-10-09T18:54:40.957Z,12.77
2022-10-09T18:57:08.351Z,15.35
2022-10-09T18:59:37.414Z,11.63
2022-10-09T19:02:04.229Z,14.05
2022-10-09T19:06:57.628Z,12.05
2022-10-09T19:09:24.402Z,13.57
2022-10-09T19:16:46.549Z,14.82
2022-10-09T19:19:13.305Z,12.15
2022-10-09T19:24:12.210Z,16.38
2022-10-09T19:26:40.335Z,13.68
2022-10-09T19:29:08.029Z,12.32
2022-10-09T19:31:35.752Z,16.70
2022-10-09T19:34:04.466Z,13.80
2022-10-09T19:36:34.221Z,14.82
2022-10-09T19:39:01.966Z,16.17
2022-10-09T19:41:28.798Z,13.50
2022-10-09T19:46:22.669Z,13.10
2022-10-09T19:48:50.046Z,12.43
2022-10-09T19:51:20.372Z,10.93
2022-10-09T19:53:47.854Z,16.98
2022-10-09T19:56:21.151Z,14.82
2022-10-09T19:58:48.986Z,12.48
2022-10-09T20:01:18.162Z,12.00
2022-10-09T20:03:45.511Z,10.32
2022-10-09T20:06:12.806Z,14.70
2022-10-09T20:08:41.847Z,10.18
2022-10-09T20:11:11.433Z,15.90
2022-10-09T20:13:39.314Z,11.40
2022-10-09T20:16:12.954Z,10.93
2022-10-09T20:18:42.176Z,10.52
2022-10-09T20:21:14.476Z,9.98
2022-10-09T20:23:41.767Z,9.10
2022-10-09T20:26:14.881Z,9.80
2022-10-09T20:28:42.312Z,12.40
2022-10-09T20:31:14.531Z,10.60
2022-10-09T20:33:42.617Z,18.73
2022-10-09T20:36:18.677Z,13.02
2022-10-09T20:38:45.329Z,16.33
2022-10-09T20:41:12.027Z,13.10
2022-10-09T20:43:40.125Z,18.88
2022-10-09T20:46:13.263Z,16.95
2022-10-09T20:48:41.045Z,15.35
2022-10-09T20:51:07.805Z,14.55
2022-10-09T20:56:04.882Z,14.30
2022-10-09T20:58:31.630Z,12.30
2022-10-09T21:00:58.377Z,11.90
2022-10-09T21:05:52.567Z,12.50
2022-10-09T21:08:19.354Z,12.35
2022-10-09T21:10:48.239Z,17.30
2022-10-09T21:13:15.291Z,18.38
2022-10-09T21:15:47.720Z,14.20
2022-10-09T21:18:16.415Z,16.65
2022-10-09T21:20:44.884Z,13.68
2022-10-09T21:23:13.384Z,13.82
2022-10-09T21:25:47.018Z,13.23
2022-10-09T21:28:13.716Z,11.15
2022-10-09T21:30:41.681Z,11.23
2022-10-09T21:33:09.305Z,10.52
2022-10-09T21:35:48.358Z,11.00
2022-10-09T21:38:17.663Z,12.15
2022-10-09T21:40:45.829Z,16.13
2022-10-09T21:43:13.290Z,14.88
2022-10-09T21:45:40.821Z,15.70
2022-10-09T21:48:08.106Z,12.70
2022-10-09T21:50:36.527Z,12.98
2022-10-09T21:53:04.040Z,13.15
2022-10-09T21:55:30.822Z,12.63
2022-10-09T21:57:57.484Z,11.98
2022-10-09T22:02:51.651Z,13.48
2022-10-09T22:05:18.803Z,12.95
2022-10-09T22:10:12.299Z,11.63
2022-10-09T22:15:06.214Z,10.10
2022-10-09T22:17:32.860Z,8.90
2022-10-09T22:19:59.495Z,9.80
2022-10-09T22:22:26.187Z,10.68
2022-10-09T22:24:52.844Z,8.50
2022-10-09T22:27:19.894Z,8.88
2022-10-09T22:29:46.539Z,8.68
2022-10-09T22:32:13.284Z,8.88
2022-10-09T22:37:06.675Z,9.98
2022-10-09T22:39:33.379Z,11.35
2022-10-09T22:42:00.014Z,7.68
2022-10-09T22:44:26.855Z,7.47
2022-10-09T22:49:20.159Z,11.35
2022-10-09T22:51:46.896Z,9.10
2022-10-09T22:56:42.688Z,6.95
2022-10-09T22:59:10.508Z,7.45
2022-10-09T23:01:43.673Z,8.02
2022-10-09T23:04:13.157Z,6.38
2022-10-09T23:06:41.371Z,7.13
2022-10-09T23:09:10.595Z,7.15
2022-10-09T23:11:37.257Z,6.63
2022-10-09T23:14:04.145Z,7.65
2022-10-09T23:19:04.126Z,7.40
2022-10-09T23:21:33.299Z,4.90
2022-10-09T23:23:59.944Z,5.53
2022-10-09T23:26:29.253Z,5.90
2022-10-09T23:29:07.190Z,4.35
2022-10-09T23:31:33.893Z,5.82
2022-10-09T23:34:00.678Z,4.22
2022-10-09T23:36:29.344Z,5.10
2022-10-09T23:38:57.137Z,4.20
2022-10-09T23:41:26.198Z,4.20
2022-10-09T23:43:53.401Z,4.25
2022-10-09T23:46:22.599Z,4.13
2022-10-09T23:48:50.615Z,4.85
2022-10-09T23:51:19.568Z,4.10
2022-10-09T23:53:46.770Z,4.50
2022-10-09T23:56:16.621Z,3.92
2022-10-09T23:58:43.779Z,4.60
